Time;durP1;ratioP1;P1;durP2;ratioP2;P2;SDS_P1;SDS_P2;PMS_P1;PMS_P2;Temp;Humidity;BMP_temperature;BMP_pressure;BME280_temperature;BME280_humidity;BME280_pressure;Samples;Min_cycle;Max_cycle;Signal;HPM_P1;HPM_P2
2023/08/18 00:01:23;;;;;;;5.55;3.75;;;16.40;99.90;;;;;;5136474;27;20087;-65
2023/08/18 00:03:49;;;;;;;6.93;3.95;;;16.40;99.90;;;;;;5136289;27;20035;-65
2023/08/18 00:06:14;;;;;;;6.88;4.35;;;16.40;99.90;;;;;;5135976;27;20393;-65
2023/08/18 00:08:40;;;;;;;10.07;4.57;;;16.40;99.90;;;;;;5136594;27;20066;-65
2023/08/18 00:11:06;;;;;;;7.78;4.20;;;16.30;99.90;;;;;;5118474;27;20125;-64
2023/08/18 00:13:32;;;;;;;7.03;4.57;;;16.30;99.90;;;;;;5136469;27;20034;-65
2023/08/18 00:15:58;;;;;;;10.32;4.90;;;16.30;99.90;;;;;;5154476;27;20099;-65
2023/08/18 00:18:23;;;;;;;7.57;4.53;;;16.30;99.90;;;;;;5135985;27;20466;-65
2023/08/18 00:20:52;;;;;;;12.25;4.80;;;16.30;99.90;;;;;;5135557;27;20520;-65
2023/08/18 00:23:18;;;;;;;9.77;4.78;;;16.30;99.90;;;;;;5135805;27;20427;-65
2023/08/18 00:25:43;;;;;;;9.30;5.20;;;16.30;99.90;;;;;;5136010;27;20053;-66
2023/08/18 00:28:09;;;;;;;9.23;5.15;;;16.30;99.90;;;;;;5154227;27;20489;-65
2023/08/18 00:30:35;;;;;;;8.77;4.43;;;16.30;99.90;;;;;;5154314;27;20397;-65
2023/08/18 00:33:00;;;;;;;11.52;4.75;;;16.30;99.90;;;;;;5154142;27;20030;-64
2023/08/18 00:35:26;;;;;;;10.55;5.30;;;16.30;99.90;;;;;;5135486;27;20047;-64
2023/08/18 00:37:52;;;;;;;8.98;4.95;;;16.30;99.90;;;;;;5118589;27;20046;-64
2023/08/18 00:40:17;;;;;;;11.48;5.32;;;16.30;99.90;;;;;;5135622;27;20396;-65
2023/08/18 00:42:43;;;;;;;12.48;4.72;;;16.30;99.90;;;;;;5135723;27;20031;-65
2023/08/18 00:45:09;;;;;;;10.50;4.70;;;16.20;99.90;;;;;;5135322;27;20464;-66
2023/08/18 00:47:37;;;;;;;8.65;4.50;;;16.20;99.90;;;;;;5135439;27;20023;-64
2023/08/18 00:50:04;;;;;;;10.27;4.88;;;16.20;99.90;;;;;;5153735;27;20054;-65
2023/08/18 00:52:30;;;;;;;5.50;3.97;;;16.10;99.90;;;;;;5153847;27;20147;-66
2023/08/18 00:54:56;;;;;;;8.68;4.55;;;16.10;99.90;;;;;;5135272;27;20050;-66
2023/08/18 00:57:22;;;;;;;7.10;3.88;;;16.10;99.90;;;;;;5135586;27;20026;-65
2023/08/18 00:59:49;;;;;;;6.95;4.05;;;16.10;99.90;;;;;;5135226;27;20084;-65
2023/08/18 01:02:19;;;;;;;10.45;4.60;;;16.10;99.90;;;;;;5153375;27;20042;-65
2023/08/18 01:04:45;;;;;;;7.13;4.03;;;16.00;99.90;;;;;;5135193;27;20046;-65
2023/08/18 01:07:11;;;;;;;8.70;3.83;;;16.00;99.90;;;;;;5153377;27;20026;-64
2023/08/18 01:09:37;;;;;;;7.70;4.20;;;16.00;99.90;;;;;;5134950;27;20398;-65
2023/08/18 01:12:07;;;;;;;6.05;4.07;;;16.00;99.90;;;;;;5135197;27;20422;-64
2023/08/18 01:14:41;;;;;;;7.30;3.47;;;16.00;99.90;;;;;;5134985;27;20518;-65
2023/08/18 01:17:14;;;;;;;7.63;3.50;;;16.00;99.90;;;;;;5135179;27;20505;-65
2023/08/18 01:19:40;;;;;;;6.45;3.30;;;16.00;99.90;;;;;;5153313;27;20035;-65
2023/08/18 01:22:11;;;;;;;5.70;3.13;;;16.00;99.90;;;;;;5153413;27;20075;-65
2023/08/18 01:24:40;;;;;;;7.82;3.38;;;16.00;99.90;;;;;;5134672;27;20039;-66
2023/08/18 01:27:06;;;;;;;5.80;3.47;;;15.90;99.90;;;;;;5116975;27;20058;-65
2023/08/18 01:29:31;;;;;;;6.93;3.80;;;16.00;99.90;;;;;;5134787;27;20484;-65
2023/08/18 01:32:01;;;;;;;6.30;3.20;;;16.00;99.90;;;;;;5153110;27;20118;-65
2023/08/18 01:34:29;;;;;;;5.78;2.80;;;16.00;99.90;;;;;;5134169;27;20055;-65
2023/08/18 01:36:57;;;;;;;4.22;3.20;;;16.00;99.90;;;;;;5134649;27;20551;-65
2023/08/18 01:39:24;;;;;;;11.68;3.13;;;16.00;99.90;;;;;;5134497;27;20094;-64
2023/08/18 01:41:51;;;;;;;5.57;2.88;;;16.00;99.90;;;;;;5133991;27;20413;-65
2023/08/18 01:44:18;;;;;;;6.78;3.08;;;15.90;99.90;;;;;;5134483;27;20171;-65
2023/08/18 01:46:47;;;;;;;7.05;2.95;;;15.90;99.90;;;;;;5134426;27;20038;-64
2023/08/18 01:49:14;;;;;;;4.75;3.05;;;15.90;99.90;;;;;;5134185;27;20118;-64
2023/08/18 01:51:40;;;;;;;4.85;3.10;;;15.90;99.90;;;;;;5133957;27;20042;-65
2023/08/18 01:54:06;;;;;;;5.80;2.70;;;15.80;99.90;;;;;;5134091;27;20046;-65
2023/08/18 01:56:32;;;;;;;5.15;2.83;;;15.80;99.90;;;;;;5116644;27;20057;-65
2023/08/18 01:58:57;;;;;;;5.75;3.10;;;15.80;99.90;;;;;;5134000;27;20042;-64
2023/08/18 02:01:23;;;;;;;7.00;2.88;;;15.80;99.90;;;;;;5133956;27;20039;-64
2023/08/18 02:03:49;;;;;;;2.85;2.53;;;15.70;99.90;;;;;;5134169;27;20167;-65
2023/08/18 02:06:14;;;;;;;3.92;2.58;;;15.80;99.90;;;;;;5134035;27;20054;-66
2023/08/18 02:08:40;;;;;;;6.15;3.13;;;15.70;99.90;;;;;;5152373;27;20118;-65
2023/08/18 02:11:06;;;;;;;4.63;2.75;;;15.70;99.90;;;;;;5133787;27;20134;-65
2023/08/18 02:13:32;;;;;;;5.18;2.83;;;15.70;99.90;;;;;;5132865;27;20046;-65
2023/08/18 02:15:59;;;;;;;5.65;3.10;;;15.70;99.90;;;;;;5133767;27;20039;-65
2023/08/18 02:18:25;;;;;;;5.53;2.80;;;15.70;99.90;;;;;;5133728;27;20081;-65
2023/08/18 02:20:55;;;;;;;6.85;3.17;;;15.70;99.90;;;;;;5133660;27;20070;-65
2023/08/18 02:23:21;;;;;;;4.60;3.10;;;15.70;99.90;;;;;;5133730;27;20088;-66
2023/08/18 02:25:47;;;;;;;6.43;2.90;;;15.70;99.90;;;;;;5133698;27;20451;-65
2023/08/18 02:28:12;;;;;;;7.40;3.20;;;15.70;99.90;;;;;;5133484;27;20030;-65
2023/08/18 02:30:38;;;;;;;4.43;2.80;;;15.70;99.90;;;;;;5133353;27;20062;-65
2023/08/18 02:33:04;;;;;;;5.90;3.13;;;15.70;99.90;;;;;;5133616;27;20041;-64
2023/08/18 02:35:29;;;;;;;4.75;2.80;;;15.70;99.90;;;;;;5129857;27;20065;-65
2023/08/18 02:37:55;;;;;;;4.88;3.20;;;15.80;99.90;;;;;;5130011;28;20082;-65
2023/08/18 02:40:21;;;;;;;6.85;3.13;;;15.80;99.90;;;;;;5130280;28;20038;-65
2023/08/18 02:42:46;;;;;;;6.68;2.95;;;15.80;99.90;;;;;;5111713;28;20062;-64
2023/08/18 02:45:12;;;;;;;7.03;2.88;;;15.90;99.90;;;;;;5129557;28;20051;-65
2023/08/18 02:47:40;;;;;;;4.57;3.03;;;15.80;99.90;;;;;;5130174;28;20031;-65
2023/08/18 02:50:06;;;;;;;7.63;3.08;;;15.80;99.90;;;;;;5113077;28;20502;-65
2023/08/18 02:52:32;;;;;;;8.88;3.50;;;15.80;99.90;;;;;;5131250;28;20038;-65
2023/08/18 02:54:58;;;;;;;4.70;2.78;;;15.80;99.90;;;;;;5112496;28;20051;-66
2023/08/18 02:57:23;;;;;;;4.57;2.88;;;15.90;99.90;;;;;;5131484;28;20034;-65
2023/08/18 02:59:49;;;;;;;4.63;3.00;;;15.90;99.90;;;;;;5129777;28;20042;-64
2023/08/18 03:02:15;;;;;;;5.40;3.13;;;15.90;99.90;;;;;;5129756;28;20042;-66
2023/08/18 03:04:40;;;;;;;6.07;3.22;;;15.90;99.90;;;;;;5129625;28;20046;-65
2023/08/18 03:07:06;;;;;;;6.43;3.00;;;15.90;99.90;;;;;;5129590;28;20038;-65
2023/08/18 03:09:32;;;;;;;9.80;3.30;;;15.90;99.90;;;;;;5129481;28;20039;-65
2023/08/18 03:11:57;;;;;;;7.60;3.47;;;15.90;99.90;;;;;;5092103;28;20440;-65
2023/08/18 03:14:23;;;;;;;4.70;3.08;;;16.00;99.90;;;;;;5109414;28;20493;-65
2023/08/18 03:16:49;;;;;;;6.07;3.00;;;16.00;99.90;;;;;;5110445;28;20490;-65
2023/08/18 03:19:14;;;;;;;7.07;3.42;;;16.00;99.90;;;;;;5109133;28;20039;-65
2023/08/18 03:21:40;;;;;;;6.45;3.22;;;16.00;99.90;;;;;;5109252;28;20090;-65
2023/08/18 03:24:06;;;;;;;7.45;3.50;;;16.00;99.90;;;;;;5110244;28;20482;-62
2023/08/18 03:26:31;;;;;;;5.47;3.88;;;16.00;99.90;;;;;;5112550;28;20048;-62
2023/08/18 03:28:57;;;;;;;6.32;3.47;;;16.00;99.90;;;;;;5112843;28;20402;-63
2023/08/18 03:31:23;;;;;;;8.77;3.63;;;16.00;99.90;;;;;;5114598;28;20394;-63
2023/08/18 03:33:49;;;;;;;6.40;3.45;;;16.00;99.90;;;;;;5113091;28;20036;-65
2023/08/18 03:36:14;;;;;;;7.70;3.55;;;16.00;99.90;;;;;;5112583;28;20051;-65
2023/08/18 03:38:40;;;;;;;7.60;3.97;;;16.00;99.90;;;;;;5112898;28;20043;-65
2023/08/18 03:41:07;;;;;;;5.03;3.13;;;16.00;99.90;;;;;;5112664;28;20498;-64
2023/08/18 03:43:33;;;;;;;5.55;3.70;;;16.00;99.90;;;;;;5112723;28;20119;-65
2023/08/18 03:46:01;;;;;;;7.53;4.20;;;16.00;99.90;;;;;;5112371;28;20169;-65
2023/08/18 03:48:27;;;;;;;5.35;3.78;;;16.00;99.90;;;;;;5112870;28;20367;-64
2023/08/18 03:50:52;;;;;;;10.30;4.80;;;16.00;99.90;;;;;;5112224;28;20062;-65
2023/08/18 03:53:22;;;;;;;8.02;4.30;;;16.00;99.90;;;;;;5112470;28;20139;-65
2023/08/18 03:55:52;;;;;;;5.95;3.75;;;16.00;99.90;;;;;;5112503;28;20127;-65
2023/08/18 03:58:17;;;;;;;8.63;4.88;;;16.00;99.90;;;;;;5131528;27;20035;-64
2023/08/18 04:00:43;;;;;;;10.57;4.93;;;16.00;99.90;;;;;;5132951;27;20156;-66
2023/08/18 04:03:09;;;;;;;8.63;4.95;;;15.90;99.90;;;;;;5133077;27;20039;-65
2023/08/18 04:05:36;;;;;;;7.53;5.25;;;15.90;99.90;;;;;;5132933;27;20054;-66
2023/08/18 04:08:02;;;;;;;7.10;4.88;;;15.90;99.90;;;;;;5132502;27;20043;-65
2023/08/18 04:10:27;;;;;;;10.02;4.93;;;15.90;99.90;;;;;;5132875;27;20029;-66
2023/08/18 04:12:53;;;;;;;8.88;4.80;;;15.90;99.90;;;;;;5132835;27;20047;-65
2023/08/18 04:15:19;;;;;;;9.50;4.93;;;15.90;99.90;;;;;;5115220;27;20058;-66
2023/08/18 04:17:44;;;;;;;8.57;5.10;;;16.00;99.90;;;;;;5132622;27;20091;-64
2023/08/18 04:20:10;;;;;;;9.65;4.88;;;16.00;99.90;;;;;;5132368;27;20046;-66
2023/08/18 04:22:36;;;;;;;12.73;4.82;;;16.00;99.90;;;;;;5132421;27;20043;-65
2023/08/18 04:25:02;;;;;;;10.88;5.10;;;16.00;99.90;;;;;;5132229;27;20058;-65
2023/08/18 04:27:27;;;;;;;8.40;4.70;;;16.00;99.90;;;;;;5132701;27;20038;-65
2023/08/18 04:29:54;;;;;;;10.60;5.43;;;16.00;99.90;;;;;;5132507;27;20077;-65
2023/08/18 04:32:19;;;;;;;7.28;4.55;;;16.00;99.90;;;;;;5132223;27;20038;-64
2023/08/18 04:34:45;;;;;;;7.97;5.00;;;16.00;99.90;;;;;;5133715;27;20145;-66
2023/08/18 04:37:10;;;;;;;10.35;5.18;;;16.00;99.90;;;;;;5134719;27;20492;-66
2023/08/18 04:39:36;;;;;;;9.77;5.03;;;16.00;99.90;;;;;;5135888;27;20503;-65
2023/08/18 04:42:02;;;;;;;10.02;5.10;;;16.00;99.90;;;;;;5135593;27;20499;-65
2023/08/18 04:44:27;;;;;;;9.15;4.75;;;16.00;99.90;;;;;;5135506;27;20045;-65
2023/08/18 04:46:53;;;;;;;8.88;4.90;;;16.00;99.90;;;;;;5135514;27;20325;-65
2023/08/18 04:49:19;;;;;;;7.47;5.00;;;16.00;99.90;;;;;;5153771;27;20066;-65
2023/08/18 04:51:44;;;;;;;8.45;5.07;;;16.00;99.90;;;;;;5135392;27;20130;-65
2023/08/18 04:54:11;;;;;;;6.95;5.28;;;16.00;99.90;;;;;;5135123;27;20510;-65
2023/08/18 04:56:38;;;;;;;10.75;5.38;;;16.00;99.90;;;;;;5118055;27;20039;-65
2023/08/18 04:59:03;;;;;;;8.10;4.90;;;16.00;99.90;;;;;;5135255;27;20142;-65
2023/08/18 05:01:29;;;;;;;8.65;4.45;;;16.00;99.90;;;;;;5135121;27;20516;-65
2023/08/18 05:03:57;;;;;;;10.55;4.70;;;16.00;99.90;;;;;;5135083;27;20434;-65
2023/08/18 05:06:22;;;;;;;8.93;4.30;;;16.00;99.90;;;;;;5134847;27;20456;-65
2023/08/18 05:08:48;;;;;;;9.90;4.15;;;16.00;99.90;;;;;;5134860;27;20125;-65
2023/08/18 05:11:14;;;;;;;8.27;4.13;;;16.00;99.90;;;;;;5134885;27;20503;-66
2023/08/18 05:13:41;;;;;;;11.23;4.03;;;16.00;99.90;;;;;;5134961;27;20038;-65
2023/08/18 05:16:07;;;;;;;7.47;3.90;;;16.00;99.90;;;;;;5135096;27;20373;-66
2023/08/18 05:18:33;;;;;;;9.57;3.78;;;16.00;99.90;;;;;;5134798;27;22343;-65
2023/08/18 05:21:00;;;;;;;8.75;3.70;;;16.10;99.90;;;;;;5117392;27;20121;-66
2023/08/18 05:23:27;;;;;;;7.57;3.83;;;16.10;99.90;;;;;;5134811;27;20039;-65
2023/08/18 05:25:56;;;;;;;6.18;3.72;;;16.10;99.90;;;;;;5153329;27;20524;-65
2023/08/18 05:28:23;;;;;;;9.00;3.80;;;16.10;99.90;;;;;;5134754;27;20042;-64
2023/08/18 05:30:49;;;;;;;6.88;3.60;;;16.10;99.90;;;;;;5134763;27;20050;-65
2023/08/18 05:33:15;;;;;;;7.00;3.90;;;16.10;99.90;;;;;;5134795;27;20039;-65
2023/08/18 05:35:41;;;;;;;6.10;3.85;;;16.10;99.90;;;;;;5134148;27;20054;-64
2023/08/18 05:38:10;;;;;;;8.88;4.13;;;16.10;99.90;;;;;;5134718;27;20518;-65
2023/08/18 05:41:08;;;;;;;9.35;4.70;;;16.10;99.90;;;;;;5134165;27;20043;-64
2023/08/18 05:43:37;;;;;;;10.52;4.30;;;16.10;99.90;;;;;;5125372;27;20046;-65
2023/08/18 05:46:03;;;;;;;7.03;4.13;;;16.10;99.90;;;;;;5134237;27;20113;-65
2023/08/18 05:48:31;;;;;;;6.43;3.95;;;16.10;99.90;;;;;;5151927;27;20034;-65
2023/08/18 05:50:56;;;;;;;8.85;4.53;;;16.10;99.90;;;;;;5152845;27;20070;-64
2023/08/18 05:53:22;;;;;;;7.68;4.35;;;16.10;99.90;;;;;;5134074;27;20122;-64
2023/08/18 05:55:48;;;;;;;8.15;4.82;;;16.10;99.90;;;;;;5147653;27;20595;-63
2023/08/18 05:58:14;;;;;;;9.05;4.13;;;16.10;99.90;;;;;;5113946;27;20095;-65
2023/08/18 06:00:39;;;;;;;6.50;4.32;;;16.20;99.90;;;;;;5133882;27;20117;-64
2023/08/18 06:03:05;;;;;;;8.15;4.07;;;16.20;99.90;;;;;;5134263;27;20039;-64
2023/08/18 06:05:33;;;;;;;7.95;3.95;;;16.20;99.90;;;;;;5133349;27;20065;-65
2023/08/18 06:07:58;;;;;;;6.03;3.83;;;16.20;99.90;;;;;;5134046;27;20030;-65
2023/08/18 06:10:24;;;;;;;8.68;4.15;;;16.20;99.90;;;;;;5152397;27;20046;-65
2023/08/18 06:12:50;;;;;;;6.82;4.35;;;16.20;99.90;;;;;;5133601;27;20121;-66
2023/08/18 06:15:20;;;;;;;6.80;4.20;;;16.30;99.90;;;;;;5134172;27;20377;-65
2023/08/18 06:17:47;;;;;;;8.00;4.38;;;16.30;99.90;;;;;;5152241;27;20403;-65
2023/08/18 06:20:13;;;;;;;8.93;4.60;;;16.30;99.90;;;;;;5133799;27;20110;-65
2023/08/18 06:22:39;;;;;;;8.75;4.97;;;16.30;99.90;;;;;;5133591;27;20111;-64
2023/08/18 06:25:07;;;;;;;9.32;4.75;;;16.30;99.90;;;;;;5133636;27;20039;-64
2023/08/18 06:27:32;;;;;;;10.38;5.45;;;16.40;99.90;;;;;;5132948;27;20393;-64
2023/08/18 06:29:58;;;;;;;9.27;5.40;;;16.40;99.90;;;;;;5132696;27;20042;-65
2023/08/18 06:32:24;;;;;;;11.00;5.88;;;16.30;99.90;;;;;;5133593;27;20027;-64
2023/08/18 06:34:52;;;;;;;9.30;5.00;;;16.30;99.90;;;;;;5133485;27;20038;-64
2023/08/18 06:37:19;;;;;;;7.72;4.60;;;16.30;99.90;;;;;;5133403;27;20055;-64
2023/08/18 06:39:44;;;;;;;6.60;5.32;;;16.40;99.90;;;;;;5133411;27;20094;-65
2023/08/18 06:42:11;;;;;;;8.55;5.53;;;16.40;99.90;;;;;;5151915;27;20493;-65
2023/08/18 06:44:37;;;;;;;7.72;5.38;;;16.40;99.90;;;;;;5132993;27;20547;-64
2023/08/18 06:47:03;;;;;;;8.98;5.72;;;16.50;99.90;;;;;;5133142;27;20047;-64
2023/08/18 06:49:29;;;;;;;9.27;5.80;;;16.50;99.90;;;;;;5152414;27;20031;-64
2023/08/18 06:51:55;;;;;;;8.80;5.80;;;16.50;99.90;;;;;;5133675;27;20099;-64
2023/08/18 06:54:20;;;;;;;9.32;5.38;;;16.50;99.90;;;;;;5133620;27;20038;-64
2023/08/18 06:56:46;;;;;;;10.00;5.93;;;16.60;99.90;;;;;;5133004;27;20046;-64
2023/08/18 06:59:13;;;;;;;8.88;5.10;;;16.60;99.90;;;;;;5133365;27;20508;-65
2023/08/18 07:01:39;;;;;;;9.20;5.93;;;16.60;99.90;;;;;;5155795;27;20038;-64
2023/08/18 07:04:05;;;;;;;8.90;5.32;;;16.70;99.90;;;;;;5137651;27;20031;-64
2023/08/18 07:06:31;;;;;;;8.60;5.97;;;16.60;99.90;;;;;;5137605;27;20382;-65
2023/08/18 07:08:57;;;;;;;8.85;5.55;;;16.70;99.90;;;;;;5137146;27;20150;-65
2023/08/18 07:11:23;;;;;;;10.95;5.60;;;16.70;99.90;;;;;;5137573;27;20074;-65
2023/08/18 07:13:48;;;;;;;12.73;6.38;;;16.70;99.90;;;;;;5155532;27;20045;-65
2023/08/18 07:16:14;;;;;;;12.55;7.20;;;16.80;99.90;;;;;;5135863;27;20083;-65
2023/08/18 07:18:39;;;;;;;8.88;6.32;;;16.80;99.90;;;;;;5137166;27;20367;-64
2023/08/18 07:21:05;;;;;;;11.48;7.70;;;16.90;99.90;;;;;;5155900;27;20047;-64
2023/08/18 07:23:31;;;;;;;12.43;7.70;;;16.90;99.90;;;;;;5136428;27;20439;-65
2023/08/18 07:25:56;;;;;;;9.15;7.03;;;16.90;99.90;;;;;;5155323;27;20046;-67
2023/08/18 07:28:22;;;;;;;9.85;7.80;;;17.00;99.90;;;;;;5136614;27;20050;-67
2023/08/18 07:30:48;;;;;;;9.60;7.15;;;17.00;99.90;;;;;;5137078;27;20034;-66
2023/08/18 07:33:13;;;;;;;12.60;8.27;;;17.00;99.90;;;;;;5136823;27;20038;-65
2023/08/18 07:35:39;;;;;;;12.05;7.40;;;17.10;99.90;;;;;;5136982;27;20063;-65
2023/08/18 07:38:05;;;;;;;12.35;7.50;;;17.10;99.90;;;;;;5116141;27;20054;-65
2023/08/18 07:40:30;;;;;;;12.45;7.57;;;17.10;99.90;;;;;;5115714;27;20059;-65
2023/08/18 07:42:56;;;;;;;11.38;7.07;;;17.10;99.90;;;;;;5115904;27;20047;-66
2023/08/18 07:45:22;;;;;;;10.32;7.95;;;17.20;99.90;;;;;;5115712;27;20472;-64
2023/08/18 07:47:47;;;;;;;11.68;7.88;;;17.20;99.90;;;;;;5115999;27;20047;-65
2023/08/18 07:50:13;;;;;;;12.52;7.65;;;17.20;99.90;;;;;;5115881;27;20035;-65
2023/08/18 07:52:41;;;;;;;12.88;7.93;;;17.20;99.90;;;;;;5134720;27;20023;-66
2023/08/18 07:55:08;;;;;;;14.25;8.50;;;17.30;99.90;;;;;;5115849;27;20110;-65
2023/08/18 07:57:37;;;;;;;15.50;8.32;;;17.30;99.90;;;;;;5116126;27;20595;-63
2023/08/18 08:00:13;;;;;;;12.63;7.82;;;17.30;99.90;;;;;;5098543;27;20047;-65
2023/08/18 08:02:39;;;;;;;11.00;7.75;;;17.40;99.90;;;;;;5115933;27;20114;-65
2023/08/18 08:05:05;;;;;;;12.80;7.43;;;17.40;99.90;;;;;;5115462;27;20506;-67
2023/08/18 08:07:33;;;;;;;13.65;6.97;;;17.50;99.90;;;;;;5115981;27;20466;-65
2023/08/18 08:10:03;;;;;;;15.00;8.38;;;17.50;99.90;;;;;;5115486;27;20039;-64
2023/08/18 08:12:29;;;;;;;12.98;8.00;;;17.60;99.90;;;;;;5114426;27;20107;-65
2023/08/18 08:14:54;;;;;;;13.30;8.00;;;17.60;99.90;;;;;;5114974;27;20051;-64
2023/08/18 08:17:20;;;;;;;11.60;7.38;;;17.70;99.90;;;;;;5115596;27;20047;-63
2023/08/18 08:19:46;;;;;;;10.90;7.18;;;17.80;99.90;;;;;;5115548;27;20138;-64
2023/08/18 08:22:11;;;;;;;10.60;7.22;;;17.90;99.90;;;;;;5133795;27;20039;-67
2023/08/18 08:24:37;;;;;;;11.02;6.70;;;18.00;99.90;;;;;;5098114;27;20043;-64
2023/08/18 08:27:03;;;;;;;11.30;6.75;;;18.00;99.90;;;;;;5133657;27;20043;-64
2023/08/18 08:29:29;;;;;;;11.23;6.70;;;18.00;99.90;;;;;;5103141;27;20042;-64
2023/08/18 08:31:55;;;;;;;9.23;6.88;;;18.10;99.90;;;;;;5149169;27;20491;-67
2023/08/18 08:34:21;;;;;;;9.63;6.63;;;18.10;99.90;;;;;;5135609;27;20037;-65
2023/08/18 08:36:46;;;;;;;11.82;6.70;;;18.10;99.90;;;;;;5135528;27;20050;-65
2023/08/18 08:39:12;;;;;;;11.88;6.32;;;18.20;99.90;;;;;;5135437;27;20045;-65
2023/08/18 08:41:37;;;;;;;12.50;6.72;;;18.20;99.90;;;;;;5135688;27;20042;-64
2023/08/18 08:44:03;;;;;;;11.40;6.72;;;18.30;99.90;;;;;;5135509;27;20405;-66
2023/08/18 08:46:30;;;;;;;11.02;6.68;;;18.30;99.90;;;;;;5135214;27;20039;-64
2023/08/18 08:49:01;;;;;;;9.75;6.55;;;18.30;99.90;;;;;;5135015;27;20045;-64
2023/08/18 08:51:29;;;;;;;9.65;6.70;;;18.40;99.90;;;;;;5135234;27;20061;-64
2023/08/18 08:53:59;;;;;;;9.52;5.82;;;18.50;99.90;;;;;;5154243;27;20027;-64
2023/08/18 08:56:30;;;;;;;10.20;6.18;;;18.50;99.90;;;;;;5135372;27;20035;-64
2023/08/18 08:58:56;;;;;;;10.20;5.85;;;18.60;99.90;;;;;;5135569;27;20045;-64
2023/08/18 09:01:26;;;;;;;9.65;5.95;;;18.60;99.90;;;;;;5153864;27;20039;-63
2023/08/18 09:03:51;;;;;;;10.68;6.57;;;18.70;99.90;;;;;;5135290;27;20066;-64
2023/08/18 09:06:17;;;;;;;12.10;7.35;;;18.70;99.90;;;;;;5135049;27;20118;-64
2023/08/18 09:08:43;;;;;;;10.80;6.43;;;18.70;99.90;;;;;;5135616;27;20499;-64
2023/08/18 09:11:09;;;;;;;8.65;6.00;;;18.80;99.90;;;;;;5135719;27;20126;-64
2023/08/18 09:13:35;;;;;;;9.65;6.60;;;18.90;99.90;;;;;;5153585;27;20551;-64
2023/08/18 09:16:06;;;;;;;10.07;6.82;;;19.00;99.90;;;;;;5135169;27;20035;-64
2023/08/18 09:18:33;;;;;;;11.80;7.25;;;19.10;99.90;;;;;;5134895;27;20046;-64
2023/08/18 09:21:06;;;;;;;10.75;7.32;;;19.20;99.90;;;;;;5135237;27;20470;-64
2023/08/18 09:23:32;;;;;;;9.07;6.47;;;19.30;99.90;;;;;;5115852;27;20039;-64
2023/08/18 09:25:58;;;;;;;10.93;6.68;;;19.50;99.90;;;;;;5114511;27;20051;-64
2023/08/18 09:28:26;;;;;;;8.50;6.05;;;19.70;99.90;;;;;;5114091;27;20118;-65
2023/08/18 09:30:52;;;;;;;8.95;6.28;;;19.80;99.90;;;;;;5114529;27;20088;-64
2023/08/18 09:33:23;;;;;;;10.40;6.28;;;19.80;99.90;;;;;;5132455;27;20095;-64
2023/08/18 09:35:59;;;;;;;9.45;6.30;;;19.80;99.90;;;;;;5132298;27;20465;-64
2023/08/18 09:38:25;;;;;;;8.70;6.22;;;19.80;99.90;;;;;;5113965;27;20043;-64
2023/08/18 09:40:55;;;;;;;9.65;6.60;;;19.80;99.90;;;;;;5114053;27;20108;-64
2023/08/18 09:43:25;;;;;;;10.30;6.47;;;19.80;99.90;;;;;;5114319;27;20035;-64
2023/08/18 09:45:53;;;;;;;10.32;6.78;;;19.70;99.90;;;;;;5113917;27;20043;-64
2023/08/18 09:48:21;;;;;;;10.55;6.55;;;19.70;99.90;;;;;;5113981;27;20455;-64
2023/08/18 09:50:49;;;;;;;10.90;7.18;;;19.70;99.90;;;;;;5113829;27;20035;-64
2023/08/18 09:53:17;;;;;;;11.82;8.00;;;19.70;99.90;;;;;;5114119;27;20114;-64
2023/08/18 09:55:46;;;;;;;9.43;7.30;;;19.70;99.90;;;;;;5132296;27;20043;-65
2023/08/18 09:58:33;;;;;;;11.15;7.60;;;19.60;99.90;;;;;;5113776;27;20050;-64
2023/08/18 10:00:59;;;;;;;12.43;8.18;;;19.60;99.90;;;;;;5113704;27;20108;-64
2023/08/18 10:03:27;;;;;;;12.88;8.00;;;19.60;99.90;;;;;;5113726;27;20043;-65
2023/08/18 10:05:54;;;;;;;14.48;8.48;;;19.60;99.90;;;;;;5131302;27;20121;-64
2023/08/18 10:08:25;;;;;;;14.13;8.90;;;19.60;99.90;;;;;;5134196;27;20038;-64
2023/08/18 10:10:51;;;;;;;14.57;9.00;;;19.50;99.90;;;;;;5152314;27;20549;-64
2023/08/18 10:13:17;;;;;;;14.80;9.40;;;19.50;99.90;;;;;;5134500;27;20039;-63
2023/08/18 10:15:43;;;;;;;13.38;8.77;;;19.50;99.90;;;;;;5133679;27;20042;-64
2023/08/18 10:18:11;;;;;;;15.38;9.48;;;19.60;99.90;;;;;;5134170;27;20042;-64
2023/08/18 10:20:50;;;;;;;18.38;9.82;;;19.60;99.90;;;;;;5133862;27;20043;-64
2023/08/18 10:23:17;;;;;;;16.00;10.38;;;19.70;99.90;;;;;;5134500;27;20560;-64
2023/08/18 10:25:52;;;;;;;20.75;10.50;;;19.70;99.90;;;;;;5152261;27;20046;-64
2023/08/18 10:28:19;;;;;;;16.00;10.05;;;19.70;99.90;;;;;;5132149;27;20074;-64
2023/08/18 10:31:03;;;;;;;16.38;10.38;;;19.60;99.90;;;;;;5113309;27;20047;-64
2023/08/18 10:33:43;;;;;;;16.27;10.82;;;19.70;99.90;;;;;;5129568;27;20126;-63
2023/08/18 10:36:12;;;;;;;15.27;10.43;;;19.80;99.90;;;;;;5133263;27;20061;-64
2023/08/18 10:38:39;;;;;;;16.35;10.38;;;19.90;99.90;;;;;;5133578;27;20101;-64
2023/08/18 10:41:05;;;;;;;15.55;10.25;;;20.00;99.90;;;;;;5133799;27;20038;-65
2023/08/18 10:43:55;;;;;;;16.02;10.23;;;20.10;99.90;;;;;;5152304;27;20042;-64
2023/08/18 10:46:32;;;;;;;15.18;10.30;;;20.20;99.90;;;;;;5133491;27;20439;-64
2023/08/18 10:48:58;;;;;;;19.25;9.57;;;20.30;99.90;;;;;;5133532;27;20401;-64
2023/08/18 10:51:23;;;;;;;14.60;10.15;;;20.30;99.90;;;;;;5133990;27;20053;-64
2023/08/18 10:53:49;;;;;;;12.80;10.05;;;20.30;99.90;;;;;;5133584;27;20041;-64
2023/08/18 10:56:15;;;;;;;13.15;10.05;;;20.40;99.90;;;;;;5152127;27;20069;-64
2023/08/18 10:58:41;;;;;;;16.08;10.25;;;20.50;99.90;;;;;;5151952;27;20034;-64
2023/08/18 11:01:09;;;;;;;13.82;9.95;;;20.60;99.90;;;;;;5133480;27;20507;-64
2023/08/18 11:03:35;;;;;;;15.18;9.93;;;20.70;99.90;;;;;;5133531;27;20042;-64
2023/08/18 11:06:02;;;;;;;15.77;9.77;;;20.80;99.90;;;;;;5115593;27;20082;-65
2023/08/18 11:08:29;;;;;;;13.43;9.38;;;20.90;99.90;;;;;;5133507;27;20034;-63
2023/08/18 11:10:54;;;;;;;13.25;9.57;;;21.10;99.90;;;;;;5133316;27;20046;-65
2023/08/18 11:13:23;;;;;;;14.43;9.27;;;21.10;99.90;;;;;;5133488;27;20041;-64
2023/08/18 11:15:50;;;;;;;13.77;9.57;;;21.10;99.90;;;;;;5133367;27;20043;-64
2023/08/18 11:18:16;;;;;;;15.75;9.77;;;21.20;99.90;;;;;;5133573;27;20042;-64
2023/08/18 11:20:43;;;;;;;16.10;10.45;;;21.20;99.90;;;;;;5133587;27;20512;-64
2023/08/18 11:23:09;;;;;;;13.60;10.07;;;21.20;99.90;;;;;;5133081;27;20070;-64
2023/08/18 11:25:36;;;;;;;15.15;10.73;;;21.30;99.90;;;;;;5115648;27;20525;-64
2023/08/18 11:28:02;;;;;;;16.15;11.00;;;21.30;99.90;;;;;;5133087;27;20054;-64
2023/08/18 11:30:28;;;;;;;16.00;10.77;;;21.40;99.90;;;;;;5133327;27;20039;-64
2023/08/18 11:32:54;;;;;;;11.80;9.82;;;21.40;99.90;;;;;;5133111;27;20050;-64
2023/08/18 11:35:21;;;;;;;15.50;10.40;;;21.50;99.90;;;;;;5151910;27;20411;-64
2023/08/18 11:37:48;;;;;;;13.68;11.05;;;21.60;99.90;;;;;;5133592;27;20515;-64
2023/08/18 11:40:18;;;;;;;12.18;9.98;;;21.80;99.90;;;;;;5115677;27;20606;-64
2023/08/18 11:42:45;;;;;;;13.50;10.98;;;22.10;99.90;;;;;;5151738;27;20039;-64
2023/08/18 11:45:16;;;;;;;13.95;10.55;;;22.20;99.90;;;;;;5132967;27;20034;-64
2023/08/18 11:47:42;;;;;;;12.68;10.98;;;22.30;99.90;;;;;;5155374;27;20039;-64
2023/08/18 11:50:09;;;;;;;11.57;9.82;;;22.50;99.90;;;;;;5155307;27;20473;-64
2023/08/18 11:52:45;;;;;;;12.40;10.25;;;22.60;99.90;;;;;;5143835;27;20043;-64
2023/08/18 11:55:12;;;;;;;12.30;10.43;;;22.60;99.90;;;;;;5116330;27;20393;-64
2023/08/18 11:57:44;;;;;;;14.02;9.98;;;22.60;99.90;;;;;;5115934;27;20383;-64
2023/08/18 12:00:14;;;;;;;14.80;11.18;;;22.70;99.90;;;;;;5134382;27;20143;-64
2023/08/18 12:02:47;;;;;;;14.15;10.75;;;23.00;99.90;;;;;;5134511;27;20460;-64
2023/08/18 12:05:23;;;;;;;11.00;9.60;;;23.20;99.90;;;;;;5115859;27;20050;-64
2023/08/18 12:07:53;;;;;;;12.35;10.30;;;23.40;99.90;;;;;;5134642;27;20091;-64
2023/08/18 12:10:19;;;;;;;14.95;10.07;;;23.60;99.90;;;;;;5115929;27;20042;-64
2023/08/18 12:12:52;;;;;;;11.13;9.13;;;23.80;99.90;;;;;;5115836;27;20054;-64
2023/08/18 12:15:18;;;;;;;11.27;9.57;;;23.80;99.90;;;;;;5115930;27;20493;-64
2023/08/18 12:17:44;;;;;;;11.05;9.25;;;23.80;99.90;;;;;;5098551;27;20047;-64
2023/08/18 12:20:10;;;;;;;12.13;10.48;;;23.70;99.90;;;;;;5115577;27;20046;-64
2023/08/18 12:22:35;;;;;;;15.32;9.65;;;23.60;99.90;;;;;;5115548;27;20039;-64
2023/08/18 12:25:02;;;;;;;12.18;10.15;;;23.50;99.90;;;;;;5115640;27;20039;-64
2023/08/18 12:27:29;;;;;;;12.57;10.73;;;23.40;99.90;;;;;;5133347;27;20424;-64
2023/08/18 12:29:56;;;;;;;12.82;10.73;;;23.40;99.90;;;;;;5136428;27;20042;-64
2023/08/18 12:32:22;;;;;;;15.13;9.90;;;23.30;99.90;;;;;;5135902;27;20070;-64
2023/08/18 12:34:50;;;;;;;14.30;10.20;;;23.30;99.90;;;;;;5136179;27;20035;-64
2023/08/18 12:37:18;;;;;;;14.07;10.85;;;23.40;99.90;;;;;;5132270;27;20126;-64
2023/08/18 12:39:44;;;;;;;12.88;11.57;;;23.40;99.90;;;;;;5132466;27;20047;-63